Time;durP1;ratioP1;P1;durP2;ratioP2;P2;SDS_P1;SDS_P2;PMS_P1;PMS_P2;Temp;Humidity;BMP_temperature;BMP_pressure;BME280_temperature;BME280_humidity;BME280_pressure;Samples;Min_cycle;Max_cycle;Signal;HPM_P1;HPM_P2
2022/01/02 00:00:13;;;;;;;5.70;5.20;;;;;;;-0.81;100.00;99524.41;1803433;78;21592;-69
2022/01/02 00:02:41;;;;;;;4.50;4.20;;;;;;;-0.80;100.00;99528.70;1803515;78;20953;-68
2022/01/02 00:05:12;;;;;;;5.33;4.83;;;;;;;-0.79;100.00;99530.83;1813773;78;20959;-71
2022/01/02 00:08:03;;;;;;;4.50;4.20;;;;;;;-0.77;100.00;99529.66;1806912;78;22753;-68
2022/01/02 00:10:47;;;;;;;4.20;3.90;;;;;;;-0.76;100.00;99533.94;1804413;79;20945;-70
2022/01/02 00:13:24;;;;;;;4.67;4.37;;;;;;;-0.74;100.00;99527.97;1804364;78;20921;-68
2022/01/02 00:15:52;;;;;;;5.03;4.62;;;;;;;-0.68;100.00;99549.66;1802819;78;21479;-63
2022/01/02 00:18:20;;;;;;;3.98;3.67;;;;;;;-0.64;100.00;99539.56;1794879;79;20998;-69
2022/01/02 00:20:48;;;;;;;3.90;3.70;;;;;;;-0.60;100.00;99546.12;1790894;79;21868;-70
2022/01/02 00:23:20;;;;;;;4.03;3.83;;;;;;;-0.60;100.00;99554.02;1794214;79;21426;-69
2022/01/02 00:25:44;;;;;;;4.80;4.50;;;;;;;-0.60;100.00;99571.16;1801483;79;21458;-68
2022/01/02 00:28:12;;;;;;;4.28;4.08;;;;;;;-0.59;100.00;99563.56;1791758;79;20993;-70
2022/01/02 00:30:41;;;;;;;4.55;4.25;;;;;;;-0.60;100.00;99573.80;1787600;79;21028;-69
2022/01/02 00:33:09;;;;;;;3.77;3.57;;;;;;;-0.61;100.00;99570.02;1801775;79;21144;-69
2022/01/02 00:35:36;;;;;;;3.83;3.62;;;;;;;-0.59;100.00;99542.97;1795746;79;21050;-68
2022/01/02 00:38:10;;;;;;;3.65;3.45;;;;;;;-0.59;100.00;99570.66;1797503;79;20972;-68
2022/01/02 00:40:39;;;;;;;5.20;3.60;;;;;;;-0.58;100.00;99559.94;1809132;78;20994;-69
2022/01/02 00:43:06;;;;;;;3.75;3.55;;;;;;;-0.53;100.00;99577.86;1761232;80;21018;-69
2022/01/02 00:45:41;;;;;;;4.03;3.72;;;;;;;-0.55;100.00;99576.71;1786171;79;21150;-68
2022/01/02 00:48:29;;;;;;;4.20;3.90;;;;;;;-0.57;100.00;99568.66;1792315;79;21013;-66
2022/01/02 00:51:03;;;;;;;14.83;9.53;;;;;;;-0.57;100.00;99579.21;1798818;79;21062;-69
2022/01/02 00:53:36;;;;;;;14.07;10.25;;;;;;;-0.60;100.00;99592.76;1801422;79;21456;-69
2022/01/02 00:56:04;;;;;;;6.15;5.55;;;;;;;-0.62;100.00;99573.66;1795484;79;20912;-69
2022/01/02 00:58:49;;;;;;;4.92;4.62;;;;;;;-0.60;100.00;99580.39;1798712;79;21125;-69
2022/01/02 01:01:15;;;;;;;16.67;11.48;;;;;;;-0.63;100.00;99558.86;1760485;80;20949;-66
2022/01/02 01:03:42;;;;;;;14.18;9.53;;;;;;;-0.67;100.00;99590.83;1763523;80;21535;-70
2022/01/02 01:06:10;;;;;;;9.18;7.15;;;;;;;-0.67;100.00;99574.20;1756958;80;20980;-69
2022/01/02 01:08:40;;;;;;;6.75;6.15;;;;;;;-0.66;100.00;99599.58;1758444;80;21113;-70
2022/01/02 01:11:09;;;;;;;4.55;4.15;;;;;;;-0.67;100.00;99598.73;1762672;80;21162;-67
2022/01/02 01:13:35;;;;;;;4.50;4.20;;;;;;;-0.67;100.00;99613.23;1792323;79;20951;-69
2022/01/02 01:16:03;;;;;;;18.65;11.03;;;;;;;-0.70;100.00;99613.60;1797133;79;20909;-64
2022/01/02 01:18:31;;;;;;;34.07;16.03;;;;;;;-0.68;100.00;99616.07;1788877;79;21540;-67
2022/01/02 01:21:00;;;;;;;27.10;14.20;;;;;;;-0.68;100.00;99631.38;1795329;79;21763;-67
2022/01/02 01:23:27;;;;;;;7.50;6.07;;;;;;;-0.69;100.00;99622.33;1792507;79;21128;-68
2022/01/02 01:25:53;;;;;;;24.60;13.75;;;;;;;-0.72;100.00;99619.55;1795756;79;22151;-68
2022/01/02 01:28:20;;;;;;;10.20;8.23;;;;;;;-0.69;100.00;99628.91;1809095;79;21470;-73
2022/01/02 01:30:48;;;;;;;11.43;9.68;;;;;;;-0.71;100.00;99628.27;1796382;79;20996;-70
2022/01/02 01:33:15;;;;;;;5.37;4.97;;;;;;;-0.72;100.00;99641.14;1786971;79;21039;-65
2022/01/02 01:35:42;;;;;;;5.28;4.87;;;;;;;-0.73;100.00;99627.66;1796064;79;22009;-70
2022/01/02 01:38:10;;;;;;;15.60;10.18;;;;;;;-0.77;100.00;99630.31;1793931;79;20948;-68
2022/01/02 01:40:44;;;;;;;12.50;9.40;;;;;;;-0.80;100.00;99647.30;1792422;79;21403;-69
2022/01/02 01:43:13;;;;;;;4.58;4.28;;;;;;;-0.86;100.00;99646.68;1787169;79;20872;-71
2022/01/02 01:45:40;;;;;;;7.97;6.70;;;;;;;-0.92;100.00;99615.28;1795813;79;21039;-71
2022/01/02 01:48:08;;;;;;;5.40;5.00;;;;;;;-0.95;100.00;99645.95;1787803;79;21142;-69
2022/01/02 01:50:39;;;;;;;5.03;4.72;;;;;;;-1.04;100.00;99629.87;1798719;79;21003;-70
2022/01/02 01:53:07;;;;;;;5.62;5.22;;;;;;;-1.05;100.00;99633.98;1798303;79;20948;-70
2022/01/02 01:55:36;;;;;;;4.72;4.42;;;;;;;-1.04;100.00;99660.67;1791418;79;21035;-69
2022/01/02 01:58:04;;;;;;;4.37;4.10;;;;;;;-1.08;100.00;99658.87;1797164;79;22585;-69
2022/01/02 02:00:33;;;;;;;4.75;4.45;;;;;;;-1.14;100.00;99665.66;1789613;79;21795;-66
2022/01/02 02:03:05;;;;;;;3.98;3.77;;;;;;;-1.16;100.00;99661.57;1803457;78;21058;-68
2022/01/02 02:05:34;;;;;;;4.55;4.25;;;;;;;-1.18;100.00;99661.73;1807269;78;20864;-69
2022/01/02 02:08:01;;;;;;;4.05;3.77;;;;;;;-1.20;100.00;99662.91;1808954;78;21461;-68
2022/01/02 02:10:36;;;;;;;4.42;4.12;;;;;;;-1.20;100.00;99670.33;1806297;78;21051;-68
2022/01/02 02:12:59;;;;;;;4.22;3.92;;;;;;;-1.23;100.00;99670.66;1795183;79;21224;-70
2022/01/02 02:15:30;;;;;;;4.47;4.08;;;;;;;-1.25;100.00;99665.24;1750550;79;21050;-69
2022/01/02 02:17:56;;;;;;;3.83;3.62;;;;;;;-1.24;100.00;99675.62;1807843;79;20936;-69
2022/01/02 02:20:29;;;;;;;4.30;4.00;;;;;;;-1.25;100.00;99667.41;1763849;79;21043;-68
2022/01/02 02:22:57;;;;;;;4.15;3.95;;;;;;;-1.30;100.00;99665.76;1792652;79;21048;-66
2022/01/02 02:25:30;;;;;;;3.75;3.55;;;;;;;-1.33;100.00;99664.30;1794866;79;25353;-71
2022/01/02 02:28:10;;;;;;;4.42;4.03;;;;;;;-1.31;100.00;99676.80;1797296;79;21010;-70
2022/01/02 02:30:44;;;;;;;4.35;4.05;;;;;;;-1.33;100.00;99682.73;1791114;79;20882;-68
2022/01/02 02:33:14;;;;;;;4.08;3.87;;;;;;;-1.35;100.00;99682.11;1791518;79;20985;-69
2022/01/02 02:35:43;;;;;;;3.80;3.60;;;;;;;-1.34;100.00;99685.55;1799998;79;20885;-68
2022/01/02 02:38:10;;;;;;;4.28;4.08;;;;;;;-1.36;100.00;99675.19;1791053;79;21520;-69
2022/01/02 02:40:39;;;;;;;4.20;4.00;;;;;;;-1.39;100.00;99684.75;1794297;79;20973;-70
2022/01/02 02:43:23;;;;;;;3.92;3.72;;;;;;;-1.40;100.00;99682.28;1801098;79;20963;-68
2022/01/02 02:51:24;;;;;;;4.10;3.90;;;;;;;-1.54;100.00;99689.12;1793946;79;21158;-65
2022/01/02 02:53:50;;;;;;;4.17;3.98;;;;;;;-1.58;100.00;99691.76;1790288;79;21027;-69
2022/01/02 02:56:24;;;;;;;;;;;;;;;-1.63;100.00;99694.91;1801850;79;20920;-63
2022/01/02 02:58:55;;;;;;;4.12;3.92;;;;;;;-1.64;100.00;99695.06;1799471;79;20151;-67
2022/01/02 03:01:22;;;;;;;9.63;6.55;;;;;;;-1.68;100.00;99697.23;1798392;79;20931;-68
2022/01/02 03:03:49;;;;;;;12.28;7.58;;;;;;;-1.71;100.00;99697.58;1790726;79;21103;-70
2022/01/02 03:06:18;;;;;;;11.65;7.78;;;;;;;-1.78;100.00;99701.88;1802640;79;20881;-70
2022/01/02 03:08:48;;;;;;;5.40;4.95;;;;;;;-1.83;100.00;99706.33;1797295;78;20944;-70
2022/01/02 03:11:19;;;;;;;6.20;5.60;;;;;;;-1.83;100.00;99716.05;1780597;78;21044;-68
2022/01/02 03:13:50;;;;;;;6.37;5.78;;;;;;;-1.86;100.00;99712.41;1805125;79;21094;-69
2022/01/02 03:16:16;;;;;;;5.55;5.15;;;;;;;-1.88;100.00;99707.84;1758682;80;21159;-69
2022/01/02 03:18:43;;;;;;;4.90;4.60;;;;;;;-1.93;100.00;99715.42;1752577;80;20993;-68
2022/01/02 03:21:12;;;;;;;5.20;4.90;;;;;;;-2.01;100.00;99724.97;1760921;80;21731;-70
2022/01/02 03:23:40;;;;;;;5.17;4.80;;;;;;;-2.02;100.00;99728.58;1765056;80;21525;-69
2022/01/02 03:26:08;;;;;;;4.25;4.00;;;;;;;-2.06;100.00;99744.86;1761473;80;21560;-69
2022/01/02 03:28:36;;;;;;;11.80;9.23;;;;;;;-2.11;100.00;99745.36;1763338;80;21824;-68
2022/01/02 03:31:05;;;;;;;6.17;5.78;;;;;;;-2.09;100.00;99749.14;1797965;79;21020;-69
2022/01/02 03:33:35;;;;;;;5.80;5.50;;;;;;;-2.17;100.00;99746.03;1776717;79;20876;-68
2022/01/02 03:36:04;;;;;;;7.65;6.95;;;;;;;-2.18;100.00;99757.05;1788272;79;20925;-67
2022/01/02 03:38:32;;;;;;;8.60;7.90;;;;;;;-2.18;100.00;99774.15;1789629;79;21018;-69
2022/01/02 03:40:59;;;;;;;8.18;7.47;;;;;;;-2.20;100.00;99780.06;1808905;79;21119;-69
2022/01/02 03:43:26;;;;;;;5.50;5.10;;;;;;;-2.26;100.00;99775.45;1811585;79;20880;-69
2022/01/02 03:45:54;;;;;;;5.87;5.45;;;;;;;-2.26;100.00;99775.45;1811292;79;20917;-69
2022/01/02 03:48:21;;;;;;;5.08;4.78;;;;;;;-2.29;100.00;99789.44;1793328;79;20968;-65
2022/01/02 03:50:48;;;;;;;4.83;4.53;;;;;;;-2.41;100.00;99785.80;1817452;79;22127;-68
2022/01/02 03:53:17;;;;;;;5.70;5.30;;;;;;;-2.44;100.00;99791.40;1792305;79;21150;-67
2022/01/02 03:55:45;;;;;;;4.90;4.60;;;;;;;-2.56;100.00;99778.75;1785284;79;20968;-70
2022/01/02 03:58:12;;;;;;;4.97;4.67;;;;;;;-2.57;100.00;99784.97;1795855;79;20924;-68
2022/01/02 04:00:40;;;;;;;4.80;4.50;;;;;;;-2.58;100.00;99785.47;1805074;79;20980;-68
2022/01/02 04:03:09;;;;;;;5.45;5.05;;;;;;;-2.59;100.00;99789.09;1795684;79;21463;-68
2022/01/02 04:05:35;;;;;;;4.72;4.47;;;;;;;-2.62;100.00;99774.97;1796634;79;21850;-68
2022/01/02 04:08:04;;;;;;;5.12;4.78;;;;;;;-2.61;100.00;99780.55;1810922;79;20977;-67
2022/01/02 04:10:33;;;;;;;5.80;5.20;;;;;;;-2.67;100.00;99765.41;1803830;79;20957;-68
2022/01/02 04:13:01;;;;;;;5.12;4.83;;;;;;;-2.69;100.00;99776.11;1794698;79;20961;-67
2022/01/02 04:15:27;;;;;;;5.80;5.37;;;;;;;-2.68;100.00;99750.15;1796586;79;20944;-67
2022/01/02 04:17:55;;;;;;;6.12;5.62;;;;;;;-2.70;100.00;99792.84;1791846;79;21159;-68
2022/01/02 04:20:24;;;;;;;5.70;5.30;;;;;;;-2.78;100.00;99788.89;1789227;79;20984;-68
2022/01/02 04:22:53;;;;;;;6.05;5.65;;;;;;;-2.81;100.00;99793.98;1795293;79;20952;-67
2022/01/02 04:25:20;;;;;;;5.08;4.58;;;;;;;-2.80;100.00;99803.50;1796047;79;21007;-66
2022/01/02 04:27:47;;;;;;;5.65;5.15;;;;;;;-2.83;100.00;99818.77;1811908;79;20979;-68
2022/01/02 04:30:16;;;;;;;;;;;;;;;-2.89;100.00;99814.14;1804504;79;21822;-66
2022/01/02 04:32:43;;;;;;;5.08;4.78;;;;;;;-2.93;100.00;99818.09;1790495;79;20109;-66
2022/01/02 04:35:10;;;;;;;5.05;4.65;;;;;;;-2.94;100.00;99817.28;1814875;79;20936;-68
2022/01/02 04:37:37;;;;;;;5.83;5.33;;;;;;;-2.94;100.00;99824.31;1812866;79;20869;-65
2022/01/02 04:40:05;;;;;;;21.68;10.30;;;;;;;-2.96;100.00;99830.21;1781384;79;20917;-67
2022/01/02 04:42:34;;;;;;;34.25;12.73;;;;;;;-3.03;100.00;99825.61;1795457;79;21521;-65
2022/01/02 04:45:01;;;;;;;50.73;22.42;;;;;;;-3.06;100.00;99831.19;1793699;79;20932;-66
2022/01/02 04:47:29;;;;;;;26.85;12.95;;;;;;;-3.08;100.00;99820.52;1785484;79;20900;-66
2022/01/02 04:49:56;;;;;;;12.55;8.60;;;;;;;-3.11;100.00;99830.00;1769382;79;20852;-67
2022/01/02 04:52:23;;;;;;;24.60;14.35;;;;;;;-3.15;100.00;99830.81;1763896;79;20967;-66
2022/01/02 04:54:51;;;;;;;8.98;8.08;;;;;;;-3.16;100.00;99802.93;1772341;79;21068;-65
2022/01/02 04:57:19;;;;;;;11.10;9.73;;;;;;;-3.13;100.00;99801.79;1786509;79;20817;-67
2022/01/02 04:59:46;;;;;;;17.07;12.80;;;;;;;-3.16;100.00;99809.49;1785224;80;20933;-68
2022/01/02 05:02:13;;;;;;;41.65;26.30;;;;;;;-3.12;100.00;99816.55;1796335;79;20893;-67
2022/01/02 05:04:41;;;;;;;26.80;18.90;;;;;;;-3.17;100.00;99824.08;1806366;79;20881;-67
2022/01/02 05:07:08;;;;;;;13.65;11.10;;;;;;;-3.20;100.00;99835.72;1788674;79;21134;-68
2022/01/02 05:09:37;;;;;;;7.00;6.50;;;;;;;-3.26;100.00;99842.44;1799160;79;20822;-66
2022/01/02 05:12:05;;;;;;;6.83;6.17;;;;;;;-3.30;100.00;99846.34;1799213;79;20909;-68
2022/01/02 05:14:32;;;;;;;6.72;6.22;;;;;;;-3.32;100.00;99842.23;1781556;80;20946;-67
2022/01/02 05:16:59;;;;;;;6.33;5.90;;;;;;;-3.37;100.00;99842.70;1801183;78;20869;-67
2022/01/02 05:19:27;;;;;;;6.35;5.75;;;;;;;-3.39;100.00;99843.34;1804593;78;21132;-66
2022/01/02 05:21:54;;;;;;;6.53;6.00;;;;;;;-3.38;100.00;99842.84;1821953;78;20955;-66
2022/01/02 05:24:22;;;;;;;6.75;6.20;;;;;;;-3.37;100.00;99866.32;1792823;78;20952;-67
2022/01/02 05:26:49;;;;;;;6.05;5.65;;;;;;;-3.37;100.00;99851.88;1804564;79;20901;-67
2022/01/02 05:29:18;;;;;;;6.27;5.87;;;;;;;-3.32;100.00;99865.36;1804796;79;21058;-66
2022/01/02 05:31:44;;;;;;;6.22;5.67;;;;;;;-3.34;100.00;99875.19;1805171;79;21120;-68
2022/01/02 05:34:13;;;;;;;8.45;6.62;;;;;;;-3.37;100.00;99874.20;1798811;78;20933;-66
2022/01/02 05:36:39;;;;;;;6.45;5.85;;;;;;;-3.47;100.00;99871.68;1796089;80;21561;-67
2022/01/02 05:39:07;;;;;;;6.72;6.12;;;;;;;-3.49;100.00;99872.31;1803089;78;20961;-67
2022/01/02 05:41:34;;;;;;;6.50;5.67;;;;;;;-3.51;100.00;99866.40;1805655;78;21029;-68
2022/01/02 05:44:01;;;;;;;7.03;5.87;;;;;;;-3.56;100.00;99879.66;1798913;79;21802;-67
2022/01/02 05:46:28;;;;;;;6.10;5.62;;;;;;;-3.63;100.00;99879.94;1799900;78;20902;-67
2022/01/02 05:48:55;;;;;;;6.75;6.03;;;;;;;-3.66;100.00;99878.45;1796946;78;20901;-66
2022/01/02 05:51:22;;;;;;;5.97;5.47;;;;;;;-3.65;100.00;99882.70;1799712;79;20936;-68
2022/01/02 05:53:51;;;;;;;5.95;5.55;;;;;;;-3.69;100.00;99876.95;1802053;79;21075;-68
2022/01/02 05:56:18;;;;;;;6.40;5.90;;;;;;;-3.77;100.00;99874.28;1787778;79;21957;-69
2022/01/02 05:58:45;;;;;;;5.92;5.42;;;;;;;-3.84;100.00;99877.18;1788209;79;21040;-69
2022/01/02 06:01:12;;;;;;;6.97;6.33;;;;;;;-3.84;100.00;99883.73;1798320;79;21493;-68
2022/01/02 06:03:40;;;;;;;6.33;5.92;;;;;;;-3.84;100.00;99886.36;1796579;79;21192;-68
2022/01/02 06:06:07;;;;;;;6.28;5.75;;;;;;;-3.92;100.00;99877.95;1799218;79;21461;-68
2022/01/02 06:08:37;;;;;;;7.03;6.50;;;;;;;-3.95;100.00;99889.21;1797582;79;21087;-68
2022/01/02 06:11:05;;;;;;;7.17;6.67;;;;;;;-3.95;100.00;99883.97;1791999;79;20988;-67
2022/01/02 06:13:33;;;;;;;7.70;7.10;;;;;;;-3.91;100.00;99886.63;1795700;79;21553;-69
2022/01/02 06:16:01;;;;;;;7.78;7.05;;;;;;;-3.85;100.00;99886.01;1785741;79;21012;-68
2022/01/02 06:18:30;;;;;;;6.65;5.78;;;;;;;-3.76;100.00;99884.28;1797975;79;20984;-69
2022/01/02 06:20:56;;;;;;;6.92;6.30;;;;;;;-3.69;100.00;99887.45;1797442;79;21152;-69
2022/01/02 06:23:23;;;;;;;8.73;7.40;;;;;;;-3.72;100.00;99887.77;1796050;79;20986;-69
2022/01/02 06:25:52;;;;;;;7.85;7.05;;;;;;;-3.73;100.00;99886.59;1798733;79;22028;-68
2022/01/02 06:28:18;;;;;;;11.08;8.05;;;;;;;-3.68;100.00;99886.95;1795718;79;21035;-68
2022/01/02 06:30:46;;;;;;;8.68;7.78;;;;;;;-3.63;100.00;99885.18;1790329;79;21501;-68
2022/01/02 06:33:12;;;;;;;11.08;9.43;;;;;;;-3.59;100.00;99893.91;1793374;79;21127;-70
2022/01/02 06:35:40;;;;;;;7.28;6.15;;;;;;;-3.59;100.00;99898.34;1761140;78;20920;-69
2022/01/02 06:38:19;;;;;;;7.28;6.60;;;;;;;-3.50;100.00;99898.73;1792183;79;21034;-68
2022/01/02 06:40:48;;;;;;;7.03;6.33;;;;;;;-3.36;100.00;99898.14;1805964;79;21480;-68
2022/01/02 06:43:16;;;;;;;6.78;6.25;;;;;;;-3.26;100.00;99896.25;1797229;79;20981;-68
2022/01/02 06:45:44;;;;;;;6.95;6.25;;;;;;;-3.24;100.00;99898.70;1785085;79;21521;-68
2022/01/02 06:48:11;;;;;;;7.05;6.35;;;;;;;-3.19;100.00;99903.00;1788330;79;20917;-69
2022/01/02 06:50:39;;;;;;;6.85;6.20;;;;;;;-3.00;100.00;99912.95;1795455;79;20975;-68
2022/01/02 06:53:07;;;;;;;7.67;7.08;;;;;;;-2.82;100.00;99914.52;1794433;79;21027;-69
2022/01/02 06:55:34;;;;;;;25.90;12.63;;;;;;;-2.63;100.00;99912.59;1803556;79;20994;-69
2022/01/02 06:58:01;;;;;;;66.05;22.75;;;;;;;-2.67;100.00;99925.71;1790729;79;21143;-68
2022/01/02 07:00:28;;;;;;;147.17;47.90;;;;;;;-2.67;100.00;99925.24;1778714;79;20890;-68
2022/01/02 07:02:55;;;;;;;60.33;21.57;;;;;;;-2.63;100.00;99927.05;1778735;79;20982;-68
2022/01/02 07:05:22;;;;;;;11.40;7.72;;;;;;;-2.64;100.00;99934.61;1792204;79;20893;-68
2022/01/02 07:07:51;;;;;;;9.00;6.63;;;;;;;-2.54;100.00;99930.05;1787695;79;21001;-69
2022/01/02 07:10:19;;;;;;;6.45;5.83;;;;;;;-2.30;100.00;99940.28;1774982;79;22066;-69
2022/01/02 07:12:46;;;;;;;7.42;6.62;;;;;;;-2.08;100.00;99941.00;1781669;79;20960;-69
2022/01/02 07:15:13;;;;;;;5.85;5.25;;;;;;;-1.73;100.00;99938.55;1789873;79;20968;-69
2022/01/02 07:17:41;;;;;;;5.17;4.67;;;;;;;-1.22;100.00;99941.48;1761608;79;21032;-68
2022/01/02 07:20:09;;;;;;;4.85;4.45;;;;;;;-0.90;100.00;99928.70;1799538;79;21576;-69
2022/01/02 07:22:41;;;;;;;4.30;4.00;;;;;;;-0.72;100.00;99922.69;1789570;79;21059;-70
2022/01/02 07:25:09;;;;;;;20.48;16.15;;;;;;;-0.95;100.00;99913.91;1785988;79;21525;-71
2022/01/02 07:27:38;;;;;;;5.22;4.83;;;;;;;-0.73;100.00;99917.11;1782535;79;20947;-69
2022/01/02 07:30:07;;;;;;;4.22;3.80;;;;;;;-0.39;100.00;99921.23;1783086;80;21608;-72
2022/01/02 07:32:35;;;;;;;4.50;3.90;;;;;;;-0.34;100.00;99924.64;1781816;79;20989;-68
2022/01/02 07:35:04;;;;;;;4.28;3.98;;;;;;;-0.41;100.00;99926.36;1778524;80;21139;-68
2022/01/02 07:37:31;;;;;;;5.15;4.65;;;;;;;-0.50;100.00;99914.52;1782455;79;20991;-68
2022/01/02 07:39:58;;;;;;;7.12;5.40;;;;;;;-0.39;100.00;99909.36;1795464;79;20826;-71
2022/01/02 07:42:27;;;;;;;14.23;7.90;;;;;;;-0.22;100.00;99915.36;1795481;79;20909;-69
2022/01/02 07:44:58;;;;;;;21.75;10.48;;;;;;;-0.05;100.00;99906.81;1795445;79;21428;-68
2022/01/02 07:47:25;;;;;;;15.80;8.95;;;;;;;0.16;100.00;99907.48;1794883;79;21251;-71
2022/01/02 07:49:52;;;;;;;4.45;3.75;;;;;;;0.41;100.00;99911.55;1788776;79;20999;-70
2022/01/02 07:52:19;;;;;;;5.55;4.97;;;;;;;0.22;100.00;99916.00;1795794;80;21004;-70
2022/01/02 07:54:46;;;;;;;6.15;4.70;;;;;;;0.01;100.00;99915.36;1795039;79;21018;-69
2022/01/02 07:57:12;;;;;;;6.28;4.58;;;;;;;-0.15;100.00;99924.19;1801520;78;20984;-70
2022/01/02 07:59:39;;;;;;;9.88;6.40;;;;;;;-0.36;100.00;99925.34;1794496;78;21494;-68
2022/01/02 08:02:06;;;;;;;7.10;5.80;;;;;;;-0.53;100.00;99939.91;1785161;78;20997;-70
2022/01/02 08:04:32;;;;;;;6.58;5.40;;;;;;;-0.33;100.00;99942.94;1779670;79;20968;-69
2022/01/02 08:06:59;;;;;;;6.20;4.87;;;;;;;-0.24;100.00;99945.05;1797242;79;20999;-71
2022/01/02 08:09:26;;;;;;;7.00;4.85;;;;;;;-0.29;100.00;99940.29;1781853;80;21016;-69
2022/01/02 08:11:53;;;;;;;4.17;3.83;;;;;;;-0.51;100.00;99948.98;1782040;79;21148;-70
2022/01/02 08:14:21;;;;;;;5.20;3.77;;;;;;;-0.31;100.00;99950.69;1777646;79;21023;-65
2022/01/02 08:16:48;;;;;;;4.42;3.70;;;;;;;-0.36;100.00;99942.48;1775626;79;20961;-71
2022/01/02 08:19:15;;;;;;;4.10;3.70;;;;;;;-0.35;100.00;99947.56;1797300;79;21446;-68
2022/01/02 08:21:42;;;;;;;3.55;3.25;;;;;;;0.15;100.00;99933.58;1801800;79;21047;-69
2022/01/02 08:24:11;;;;;;;4.22;3.90;;;;;;;0.36;100.00;99948.23;1774509;79;21127;-67
2022/01/02 08:26:38;;;;;;;;;;;;;;;0.20;100.00;99939.96;1774681;79;20882;-68
2022/01/02 08:29:05;;;;;;;3.55;3.10;;;;;;;0.02;100.00;99935.46;1788437;79;20116;-69
2022/01/02 08:31:35;;;;;;;4.72;4.03;;;;;;;0.20;100.00;99943.92;1771970;79;21092;-72
2022/01/02 08:34:02;;;;;;;5.05;4.33;;;;;;;-0.21;100.00;99947.33;1772500;79;21079;-69
2022/01/02 08:36:35;;;;;;;5.17;4.22;;;;;;;-0.52;100.00;99938.09;1762315;80;21518;-68
2022/01/02 08:39:02;;;;;;;3.75;3.35;;;;;;;-0.43;100.00;99926.52;1764917;79;21016;-69
2022/01/02 08:41:29;;;;;;;3.50;3.20;;;;;;;-0.72;100.00;99930.59;1796259;79;20896;-69
2022/01/02 08:43:56;;;;;;;4.03;3.67;;;;;;;-0.47;100.00;99920.75;1797911;79;20921;-69
2022/01/02 08:46:24;;;;;;;3.95;3.62;;;;;;;-0.29;100.00;99940.29;1777356;80;20976;-68
2022/01/02 08:48:53;;;;;;;4.15;3.85;;;;;;;0.09;100.00;99937.72;1777392;80;21023;-67
2022/01/02 08:51:21;;;;;;;3.50;3.20;;;;;;;0.29;100.00;99939.37;1779975;79;22826;-68
2022/01/02 08:53:48;;;;;;;5.08;3.60;;;;;;;-0.05;100.00;99930.56;1792981;79;20952;-69
2022/01/02 08:56:14;;;;;;;3.75;3.37;;;;;;;-0.09;100.00;99920.87;1795373;79;20977;-69
2022/01/02 08:58:41;;;;;;;7.17;6.47;;;;;;;-0.09;100.00;99923.51;1794810;79;21008;-70
2022/01/02 09:01:08;;;;;;;4.20;3.87;;;;;;;0.02;100.00;99914.34;1789537;79;21124;-70
2022/01/02 09:03:35;;;;;;;5.58;4.60;;;;;;;0.15;100.00;99906.67;1785832;79;21010;-68
2022/01/02 09:06:03;;;;;;;12.07;9.27;;;;;;;0.34;100.00;99921.22;1784442;79;20936;-69
2022/01/02 09:08:30;;;;;;;6.95;6.35;;;;;;;0.63;100.00;99921.75;1761651;79;21060;-70
2022/01/02 09:10:57;;;;;;;7.87;7.25;;;;;;;0.74;100.00;99926.30;1799274;79;20942;-69
2022/01/02 09:13:26;;;;;;;4.12;3.83;;;;;;;0.76;100.00;99929.55;1765788;79;21447;-68
2022/01/02 09:15:54;;;;;;;17.15;11.95;;;;;;;0.85;100.00;99931.93;1768592;79;20968;-69
2022/01/02 09:18:20;;;;;;;11.83;9.45;;;;;;;0.97;100.00;99936.27;1769451;79;21062;-70
2022/01/02 09:20:48;;;;;;;5.20;4.45;;;;;;;0.91;100.00;99933.05;1764374;79;20972;-68
2022/01/02 09:23:14;;;;;;;4.70;4.25;;;;;;;0.84;100.00;99938.73;1766236;79;21063;-69
2022/01/02 09:25:43;;;;;;;3.80;3.50;;;;;;;0.96;100.00;99939.94;1739453;80;20988;-67
2022/01/02 09:28:12;;;;;;;3.15;2.95;;;;;;;0.98;94.38;99939.73;1771568;79;21020;-71
2022/01/02 09:30:42;;;;;;;3.27;3.08;;;;;;;1.06;93.29;99935.19;1774779;79;21007;-67
2022/01/02 09:33:09;;;;;;;3.22;2.92;;;;;;;1.20;90.85;99934.88;1775300;80;21989;-68
2022/01/02 09:35:41;;;;;;;3.25;3.05;;;;;;;1.20;87.28;99924.30;1775986;79;21012;-70
2022/01/02 09:38:09;;;;;;;4.50;3.50;;;;;;;1.06;88.60;99917.19;1770375;79;21177;-68
2022/01/02 09:40:36;;;;;;;3.92;3.40;;;;;;;1.06;89.46;99911.39;1781649;79;21013;-68
2022/01/02 09:43:04;;;;;;;5.03;4.12;;;;;;;1.42;89.76;99909.80;1767730;79;20960;-67
2022/01/02 09:45:35;;;;;;;4.58;4.17;;;;;;;1.84;84.87;99910.39;1773370;79;21609;-66
2022/01/02 09:48:05;;;;;;;5.80;4.75;;;;;;;1.89;82.88;99904.53;1791069;79;21056;-69
2022/01/02 09:50:35;;;;;;;5.60;4.58;;;;;;;2.03;81.64;99920.02;1782813;79;21153;-68
2022/01/02 09:53:03;;;;;;;8.05;6.20;;;;;;;1.81;81.46;99914.70;1798372;79;21474;-68
2022/01/02 09:55:29;;;;;;;4.20;3.80;;;;;;;1.74;83.24;99910.36;1801033;79;21003;-67
2022/01/02 09:57:59;;;;;;;4.12;3.72;;;;;;;1.83;85.10;99912.70;1788368;79;21089;-68
2022/01/02 10:00:28;;;;;;;3.65;3.35;;;;;;;2.06;83.84;99907.75;1800410;79;21011;-68
2022/01/02 10:03:19;;;;;;;3.27;2.92;;;;;;;1.75;82.41;99903.56;1717379;82;20952;-69
2022/01/02 10:06:03;;;;;;;4.20;3.90;;;;;;;1.46;83.94;99905.78;1715458;83;21594;-66
2022/01/02 10:08:31;;;;;;;4.95;4.53;;;;;;;1.41;84.74;99897.08;1708127;83;21064;-68
2022/01/02 10:11:15;;;;;;;4.80;3.50;;;;;;;1.57;84.38;99880.17;1709241;83;21072;-68
2022/01/02 10:13:57;;;;;;;3.52;3.00;;;;;;;1.74;81.82;99874.15;1714014;82;21076;-68
2022/01/02 10:16:37;;;;;;;3.60;3.30;;;;;;;1.71;81.30;99873.18;1721751;82;21172;-68
2022/01/02 10:19:26;;;;;;;3.72;3.45;;;;;;;1.71;81.42;99859.47;1721996;82;21072;-66
2022/01/02 10:22:00;;;;;;;4.40;4.00;;;;;;;1.86;80.33;99851.94;1715867;82;21052;-67
2022/01/02 10:24:47;;;;;;;3.47;3.02;;;;;;;2.15;77.18;99872.16;1721465;82;20976;-68
2022/01/02 10:27:19;;;;;;;4.28;3.20;;;;;;;2.11;76.90;99873.58;1722332;82;21054;-68
2022/01/02 10:29:58;;;;;;;14.78;8.60;;;;;;;2.39;78.28;99866.95;1725540;82;21026;-68
2022/01/02 10:32:35;;;;;;;5.58;5.12;;;;;;;2.19;76.05;99870.78;1721966;82;20988;-67
2022/01/02 10:35:18;;;;;;;6.30;5.25;;;;;;;2.04;76.83;99863.42;1775498;79;21562;-66
2022/01/02 10:38:01;;;;;;;11.53;10.45;;;;;;;1.96;78.67;99865.70;1799238;79;21739;-67
2022/01/02 10:40:42;;;;;;;6.20;4.70;;;;;;;2.48;75.83;99864.48;1808129;78;20986;-67
2022/01/02 10:43:14;;;;;;;4.45;4.05;;;;;;;2.46;74.36;99862.53;1805860;79;21059;-67
2022/01/02 10:45:47;;;;;;;7.33;5.42;;;;;;;2.49;71.94;99866.11;1796758;79;20929;-66
2022/01/02 10:48:16;;;;;;;3.77;3.37;;;;;;;2.14;71.72;99856.78;1732828;82;21064;-68
2022/01/02 10:51:05;;;;;;;23.47;12.70;;;;;;;1.97;71.87;99869.16;1733216;82;28171;-67
2022/01/02 10:53:38;;;;;;;38.42;21.05;;;;;;;1.95;73.00;99871.18;1778244;79;20973;-68
2022/01/02 10:56:06;;;;;;;19.17;10.05;;;;;;;1.74;74.33;99882.09;1808366;79;21543;-69
2022/01/02 10:58:35;;;;;;;56.35;26.87;;;;;;;1.66;77.06;99881.67;1802233;78;20932;-68
2022/01/02 11:01:06;;;;;;;18.32;10.85;;;;;;;1.89;76.20;99873.58;1808364;79;21038;-67
2022/01/02 11:03:36;;;;;;;25.70;13.20;;;;;;;1.87;76.91;99876.09;1807069;79;20930;-68
2022/01/02 11:06:09;;;;;;;23.52;12.85;;;;;;;1.76;76.82;99872.62;1807540;79;21232;-68
2022/01/02 11:08:41;;;;;;;21.60;12.65;;;;;;;1.86;76.59;99867.34;1805173;79;20980;-66
2022/01/02 11:11:13;;;;;;;9.70;6.15;;;;;;;1.93;75.33;99864.73;1798422;78;21005;-68
2022/01/02 11:13:41;;;;;;;16.52;9.45;;;;;;;1.65;78.33;99860.72;1806407;78;21593;-67
2022/01/02 11:16:12;;;;;;;3.25;2.95;;;;;;;1.54;74.12;99854.58;1812846;78;21036;-67
2022/01/02 11:18:40;;;;;;;18.25;11.38;;;;;;;1.23;75.21;99855.17;1808854;78;21079;-68
2022/01/02 11:21:10;;;;;;;31.95;14.85;;;;;;;1.06;76.15;99848.45;1795075;78;21160;-66
2022/01/02 11:24:01;;;;;;;5.15;4.65;;;;;;;1.17;77.61;99846.64;1821989;77;21113;-67
2022/01/02 11:26:43;;;;;;;12.50;9.30;;;;;;;1.26;76.80;99847.37;1814196;79;20979;-66
2022/01/02 11:29:11;;;;;;;6.72;5.92;;;;;;;1.35;78.05;99844.94;1813314;78;21016;-67
2022/01/02 11:31:43;;;;;;;;;;;;;;;1.76;78.03;99831.09;1778365;80;21032;-67
2022/01/02 11:34:29;;;;;;;4.78;3.10;;;;;;;1.89;75.17;99825.11;1781401;80;21156;-68
2022/01/02 11:37:18;;;;;;;4.12;3.45;;;;;;;1.65;76.99;99815.73;1744384;82;20912;-69
2022/01/02 11:40:04;;;;;;;6.67;6.08;;;;;;;1.66;78.21;99806.26;1814052;79;21053;-69
2022/01/02 11:42:52;;;;;;;13.20;11.63;;;;;;;1.80;79.96;99800.59;1814540;79;21044;-70